createdAt,value
2023-05-22T00:00:04.352Z,520.00
2023-05-22T00:01:04.362Z,521.00
2023-05-22T00:02:04.472Z,522.00
2023-05-22T00:03:04.449Z,523.00
2023-05-22T00:04:04.407Z,523.00
2023-05-22T00:05:04.434Z,524.00
2023-05-22T00:06:04.445Z,523.00
2023-05-22T00:07:04.453Z,524.00
2023-05-22T00:08:04.459Z,525.00
2023-05-22T00:09:04.485Z,525.00
2023-05-22T00:10:04.519Z,524.00
2023-05-22T00:11:04.554Z,523.00
2023-05-22T00:12:04.562Z,523.00
2023-05-22T00:13:04.564Z,524.00
2023-05-22T00:14:04.591Z,526.00
2023-05-22T00:15:04.582Z,525.00
2023-05-22T00:16:04.596Z,524.00
2023-05-22T00:17:04.684Z,527.00
2023-05-22T00:18:04.673Z,527.00
2023-05-22T00:19:04.695Z,528.00
2023-05-22T00:20:04.664Z,526.00
2023-05-22T00:21:04.666Z,528.00
2023-05-22T00:22:04.680Z,527.00
2023-05-22T00:23:04.706Z,527.00
2023-05-22T00:24:04.716Z,528.00
2023-05-22T00:25:04.765Z,527.00
2023-05-22T00:26:04.774Z,527.00
2023-05-22T00:27:04.788Z,526.00
2023-05-22T00:28:04.793Z,526.00
2023-05-22T00:29:04.810Z,526.00
2023-05-22T00:30:04.818Z,529.00
2023-05-22T00:31:04.859Z,530.00
2023-05-22T00:32:04.887Z,530.00
2023-05-22T00:33:04.954Z,531.00
2023-05-22T00:34:04.979Z,532.00
2023-05-22T00:35:04.957Z,533.00
2023-05-22T00:36:04.930Z,535.00
2023-05-22T00:37:04.968Z,533.00
2023-05-22T00:38:04.945Z,530.00
2023-05-22T00:39:04.968Z,532.00
2023-05-22T00:40:04.980Z,530.00
2023-05-22T00:41:04.993Z,531.00
2023-05-22T00:42:05.008Z,530.00
2023-05-22T00:43:05.022Z,529.00
2023-05-22T00:44:05.054Z,530.00
2023-05-22T00:45:05.048Z,530.00
2023-05-22T00:46:05.074Z,531.00
2023-05-22T00:47:05.103Z,530.00
2023-05-22T00:48:05.115Z,528.00
2023-05-22T00:49:05.089Z,528.00
2023-05-22T00:50:05.117Z,528.00
2023-05-22T00:51:05.131Z,527.00
2023-05-22T00:52:05.153Z,526.00
2023-05-22T00:53:05.168Z,524.00
2023-05-22T00:54:05.171Z,524.00
2023-05-22T00:55:05.172Z,528.00
2023-05-22T00:56:05.220Z,528.00
2023-05-22T00:57:05.252Z,529.00
2023-05-22T00:58:05.229Z,531.00
2023-05-22T00:59:05.235Z,532.00
2023-05-22T01:00:05.246Z,536.00
2023-05-22T01:01:05.257Z,536.00
2023-05-22T01:02:05.382Z,536.00
2023-05-22T01:03:05.354Z,536.00
2023-05-22T01:04:05.406Z,534.00
2023-05-22T01:05:05.305Z,532.00
2023-05-22T01:06:05.317Z,531.00
2023-05-22T01:07:05.336Z,529.00
2023-05-22T01:08:05.345Z,528.00
2023-05-22T01:09:05.356Z,530.00
2023-05-22T01:10:05.365Z,530.00
2023-05-22T01:11:05.429Z,529.00
2023-05-22T01:12:05.414Z,529.00
2023-05-22T01:13:05.440Z,529.00
2023-05-22T01:14:05.417Z,531.00
2023-05-22T01:15:05.430Z,535.00
2023-05-22T01:16:05.555Z,537.00
2023-05-22T01:17:05.473Z,539.00
2023-05-22T01:18:05.503Z,541.00
2023-05-22T01:19:05.542Z,538.00
2023-05-22T01:20:05.518Z,537.00
2023-05-22T01:21:05.535Z,536.00
2023-05-22T01:22:05.583Z,536.00
2023-05-22T01:23:05.560Z,533.00
2023-05-22T01:24:05.581Z,533.00
2023-05-22T01:25:05.590Z,530.00
2023-05-22T01:26:05.590Z,530.00
2023-05-22T01:27:05.636Z,531.00
2023-05-22T01:28:05.620Z,535.00
2023-05-22T01:29:05.629Z,538.00
2023-05-22T01:30:05.652Z,537.00
2023-05-22T01:31:05.673Z,537.00
2023-05-22T01:32:05.709Z,539.00
2023-05-22T01:33:05.763Z,543.00
2023-05-22T01:34:05.777Z,545.00
2023-05-22T01:35:05.780Z,545.00
2023-05-22T01:36:05.773Z,544.00
2023-05-22T01:37:05.808Z,542.00
2023-05-22T01:38:05.777Z,542.00
2023-05-22T01:39:05.812Z,541.00
2023-05-22T01:40:05.813Z,542.00
2023-05-22T01:41:05.821Z,543.00
2023-05-22T01:42:05.891Z,543.00
2023-05-22T01:43:05.881Z,543.00
2023-05-22T01:44:05.920Z,542.00
2023-05-22T01:45:05.913Z,544.00
2023-05-22T01:46:05.952Z,543.00
2023-05-22T01:47:05.953Z,542.00
2023-05-22T01:48:05.944Z,543.00
2023-05-22T01:49:05.966Z,542.00
2023-05-22T01:50:05.970Z,542.00
2023-05-22T01:51:05.967Z,540.00
2023-05-22T01:52:05.999Z,539.00
2023-05-22T01:53:05.986Z,538.00
2023-05-22T01:54:06.017Z,540.00
2023-05-22T01:55:06.013Z,541.00
2023-05-22T01:56:06.020Z,541.00
2023-05-22T01:57:06.033Z,540.00
2023-05-22T01:58:06.044Z,542.00
2023-05-22T01:59:06.041Z,544.00
2023-05-22T02:00:06.050Z,545.00
2023-05-22T02:01:06.109Z,545.00
2023-05-22T02:02:06.099Z,544.00
2023-05-22T02:03:06.177Z,543.00
2023-05-22T02:04:06.088Z,543.00
2023-05-22T02:05:06.124Z,544.00
2023-05-22T02:06:06.196Z,545.00
2023-05-22T02:07:06.127Z,543.00
2023-05-22T02:08:06.136Z,542.00
2023-05-22T02:09:06.136Z,543.00
2023-05-22T02:10:06.166Z,543.00
2023-05-22T02:11:06.168Z,543.00
2023-05-22T02:12:06.208Z,541.00
2023-05-22T02:13:06.211Z,540.00
2023-05-22T02:14:06.222Z,542.00
2023-05-22T02:15:06.219Z,542.00
2023-05-22T02:16:06.305Z,541.00
2023-05-22T02:17:06.259Z,541.00
2023-05-22T02:18:06.609Z,541.00
2023-05-22T02:19:06.573Z,542.00
2023-05-22T02:20:06.321Z,540.00
2023-05-22T02:21:06.298Z,538.00
2023-05-22T02:22:06.409Z,539.00
2023-05-22T02:23:06.340Z,542.00
2023-05-22T02:24:06.398Z,544.00
2023-05-22T02:25:06.369Z,545.00
2023-05-22T02:26:06.372Z,542.00
2023-05-22T02:27:06.438Z,544.00
2023-05-22T02:28:06.421Z,546.00
2023-05-22T02:29:06.460Z,545.00
2023-05-22T02:30:06.437Z,545.00
2023-05-22T02:31:06.483Z,544.00
2023-05-22T02:32:06.520Z,543.00
2023-05-22T02:33:06.603Z,543.00
2023-05-22T02:34:06.560Z,543.00
2023-05-22T02:35:06.548Z,546.00
2023-05-22T02:36:06.599Z,547.00
2023-05-22T02:37:06.619Z,549.00
2023-05-22T02:38:07.036Z,547.00
2023-05-22T02:39:06.588Z,548.00
2023-05-22T02:40:06.669Z,548.00
2023-05-22T02:41:06.629Z,548.00
2023-05-22T02:42:06.691Z,549.00
2023-05-22T02:43:06.672Z,550.00
2023-05-22T02:44:06.682Z,549.00
2023-05-22T02:45:06.706Z,550.00
2023-05-22T02:46:06.764Z,550.00
2023-05-22T02:47:06.767Z,546.00
2023-05-22T02:48:06.799Z,547.00
2023-05-22T02:49:06.773Z,548.00
2023-05-22T02:50:06.813Z,547.00
2023-05-22T02:51:06.814Z,547.00
2023-05-22T02:52:06.825Z,548.00
2023-05-22T02:53:06.849Z,548.00
2023-05-22T02:54:06.868Z,547.00
2023-05-22T02:55:06.880Z,548.00
2023-05-22T02:56:06.917Z,549.00
2023-05-22T02:57:06.944Z,549.00
2023-05-22T02:58:06.968Z,550.00
2023-05-22T02:59:06.974Z,551.00
2023-05-22T03:00:07.008Z,553.00
2023-05-22T03:01:07.007Z,551.00
2023-05-22T03:02:07.147Z,550.00
2023-05-22T03:03:07.137Z,548.00
2023-05-22T03:04:07.194Z,549.00
2023-05-22T03:05:07.118Z,549.00
2023-05-22T03:06:07.113Z,548.00
2023-05-22T03:07:07.134Z,550.00
2023-05-22T03:08:07.148Z,550.00
2023-05-22T03:09:07.159Z,550.00
2023-05-22T03:10:07.225Z,550.00
2023-05-22T03:11:07.216Z,551.00
2023-05-22T03:12:07.236Z,552.00
2023-05-22T03:13:07.277Z,551.00
2023-05-22T03:14:07.268Z,550.00
2023-05-22T03:15:07.275Z,549.00
2023-05-22T03:16:07.378Z,549.00
2023-05-22T03:17:07.312Z,548.00
2023-05-22T03:18:07.416Z,549.00
2023-05-22T03:19:07.441Z,549.00
2023-05-22T03:20:07.404Z,550.00
2023-05-22T03:21:07.405Z,549.00
2023-05-22T03:22:07.411Z,549.00
2023-05-22T03:23:07.434Z,547.00
2023-05-22T03:24:07.438Z,546.00
2023-05-22T03:25:07.449Z,548.00
2023-05-22T03:26:07.461Z,547.00
2023-05-22T03:27:07.498Z,546.00
2023-05-22T03:28:07.506Z,548.00
2023-05-22T03:29:07.676Z,549.00
2023-05-22T03:30:07.522Z,550.00
2023-05-22T03:31:07.515Z,550.00
2023-05-22T03:32:07.530Z,550.00
2023-05-22T03:33:07.710Z,548.00
2023-05-22T03:34:07.658Z,548.00
2023-05-22T03:35:07.584Z,549.00
2023-05-22T03:36:07.585Z,550.00
2023-05-22T03:37:07.601Z,549.00
2023-05-22T03:38:07.642Z,549.00
2023-05-22T03:39:07.637Z,549.00
2023-05-22T03:40:07.679Z,550.00
2023-05-22T03:41:07.682Z,550.00
2023-05-22T03:42:07.682Z,548.00
2023-05-22T03:43:07.709Z,548.00
2023-05-22T03:44:07.732Z,548.00
2023-05-22T03:45:07.749Z,545.00
2023-05-22T03:46:07.801Z,547.00
2023-05-22T03:47:07.783Z,548.00
2023-05-22T03:48:07.832Z,549.00
2023-05-22T03:49:07.820Z,550.00
2023-05-22T03:50:07.834Z,550.00
2023-05-22T03:51:07.862Z,550.00
2023-05-22T03:52:07.898Z,548.00
2023-05-22T03:53:07.905Z,547.00
2023-05-22T03:54:07.903Z,548.00
2023-05-22T03:55:07.917Z,548.00
2023-05-22T03:56:07.941Z,548.00
2023-05-22T03:57:07.975Z,546.00
2023-05-22T03:58:07.978Z,547.00
2023-05-22T03:59:07.979Z,550.00
2023-05-22T04:00:07.985Z,552.00
2023-05-22T04:01:08.015Z,550.00
2023-05-22T04:02:08.054Z,551.00
2023-05-22T04:03:08.105Z,552.00
2023-05-22T04:04:08.055Z,551.00
2023-05-22T04:05:08.144Z,551.00
2023-05-22T04:06:08.110Z,553.00
2023-05-22T04:07:08.112Z,554.00
2023-05-22T04:08:08.121Z,555.00
2023-05-22T04:09:08.155Z,552.00
2023-05-22T04:10:08.157Z,554.00
2023-05-22T04:11:08.187Z,553.00
2023-05-22T04:12:08.203Z,551.00
2023-05-22T04:13:08.201Z,555.00
2023-05-22T04:14:08.203Z,555.00
2023-05-22T04:15:08.228Z,556.00
2023-05-22T04:16:08.248Z,555.00
2023-05-22T04:17:08.249Z,555.00
2023-05-22T04:18:08.337Z,555.00
2023-05-22T04:19:08.357Z,555.00
2023-05-22T04:20:08.301Z,555.00
2023-05-22T04:21:08.328Z,555.00
2023-05-22T04:22:08.343Z,554.00
2023-05-22T04:23:08.371Z,556.00
2023-05-22T04:24:08.355Z,558.00
2023-05-22T04:25:08.384Z,560.00
2023-05-22T04:26:08.389Z,560.00
2023-05-22T04:27:08.424Z,560.00
2023-05-22T04:28:08.431Z,560.00
2023-05-22T04:29:08.481Z,560.00
2023-05-22T04:30:08.475Z,560.00
2023-05-22T04:31:08.537Z,558.00
2023-05-22T04:32:08.493Z,558.00
2023-05-22T04:33:08.659Z,558.00
2023-05-22T04:34:08.527Z,559.00
2023-05-22T04:35:08.538Z,555.00
2023-05-22T04:36:10.378Z,555.00
2023-05-22T04:37:08.650Z,556.00
2023-05-22T04:38:08.556Z,556.00
2023-05-22T04:39:08.557Z,557.00
2023-05-22T04:40:08.590Z,556.00
2023-05-22T04:41:08.537Z,555.00
2023-05-22T04:42:08.529Z,557.00
2023-05-22T04:43:08.516Z,556.00
2023-05-22T04:44:08.602Z,558.00
2023-05-22T04:45:08.484Z,558.00
2023-05-22T04:46:08.541Z,558.00
2023-05-22T04:47:08.538Z,558.00
2023-05-22T04:48:08.560Z,556.00
2023-05-22T04:49:08.464Z,557.00
2023-05-22T04:50:08.460Z,556.00
2023-05-22T04:51:08.452Z,556.00
2023-05-22T04:52:08.447Z,556.00
2023-05-22T04:53:08.461Z,557.00
2023-05-22T04:54:08.471Z,557.00
2023-05-22T04:55:08.462Z,558.00
2023-05-22T04:56:08.418Z,559.00
2023-05-22T04:57:08.416Z,558.00
2023-05-22T04:58:08.529Z,555.00
2023-05-22T04:59:08.410Z,556.00
2023-05-22T05:00:08.408Z,558.00
2023-05-22T05:01:08.433Z,559.00
2023-05-22T05:02:08.532Z,561.00
2023-05-22T05:03:08.582Z,562.00
2023-05-22T05:04:08.479Z,561.00
2023-05-22T05:05:08.370Z,563.00
2023-05-22T05:06:08.354Z,564.00
2023-05-22T05:07:08.332Z,562.00
2023-05-22T05:08:08.329Z,561.00
2023-05-22T05:09:08.319Z,560.00
2023-05-22T05:10:08.330Z,561.00
2023-05-22T05:11:08.320Z,561.00
2023-05-22T05:12:08.292Z,560.00
2023-05-22T05:13:08.292Z,562.00
2023-05-22T05:14:08.296Z,560.00
2023-05-22T05:15:08.278Z,562.00
2023-05-22T05:16:08.352Z,561.00
2023-05-22T05:17:08.261Z,563.00
2023-05-22T05:18:08.467Z,562.00
2023-05-22T05:19:08.284Z,562.00
2023-05-22T05:20:08.240Z,558.00
2023-05-22T05:21:08.233Z,556.00
2023-05-22T05:22:08.229Z,554.00
2023-05-22T05:23:08.596Z,550.00
2023-05-22T05:24:08.224Z,549.00
2023-05-22T05:25:09.589Z,551.00
2023-05-22T05:26:08.188Z,550.00
2023-05-22T05:27:08.222Z,549.00
2023-05-22T05:28:08.175Z,548.00
2023-05-22T05:29:08.160Z,572.00
2023-05-22T05:30:08.222Z,558.00
2023-05-22T05:31:08.147Z,570.00
2023-05-22T05:32:08.277Z,573.00
2023-05-22T05:33:08.215Z,626.00
2023-05-22T05:34:08.166Z,750.00
2023-05-22T05:35:08.261Z,674.00
2023-05-22T05:36:08.202Z,672.00
2023-05-22T05:37:08.122Z,668.00
2023-05-22T05:38:08.136Z,653.00
2023-05-22T05:39:08.114Z,651.00
2023-05-22T05:40:08.103Z,655.00
2023-05-22T05:41:08.099Z,647.00
2023-05-22T05:42:08.087Z,638.00
2023-05-22T05:43:09.340Z,629.00
2023-05-22T05:44:08.066Z,623.00
2023-05-22T05:45:08.104Z,618.00
2023-05-22T05:46:08.117Z,620.00
2023-05-22T05:47:08.067Z,616.00
2023-05-22T05:48:08.112Z,617.00
2023-05-22T05:49:08.080Z,613.00
2023-05-22T05:50:08.055Z,604.00
2023-05-22T05:51:08.028Z,603.00
2023-05-22T05:52:08.032Z,600.00
2023-05-22T05:53:08.015Z,643.00
2023-05-22T05:54:08.034Z,638.00
2023-05-22T05:55:08.007Z,644.00
2023-05-22T05:56:07.987Z,646.00
2023-05-22T05:57:07.989Z,645.00
2023-05-22T05:58:07.966Z,642.00
2023-05-22T05:59:07.968Z,636.00
2023-05-22T06:00:07.955Z,634.00
2023-05-22T06:01:07.950Z,638.00
2023-05-22T06:02:07.958Z,636.00
2023-05-22T06:03:08.145Z,640.00
2023-05-22T06:04:08.046Z,645.00
2023-05-22T06:05:08.133Z,647.00
2023-05-22T06:06:08.095Z,600.00
2023-05-22T06:07:08.192Z,614.00
2023-05-22T06:08:08.141Z,626.00
2023-05-22T06:09:08.166Z,707.00
2023-05-22T06:10:08.207Z,696.00
2023-05-22T06:11:08.226Z,743.00
2023-05-22T06:12:08.282Z,703.00
2023-05-22T06:13:08.305Z,728.00
2023-05-22T06:14:08.328Z,679.00
2023-05-22T06:15:08.352Z,670.00
2023-05-22T06:16:08.426Z,770.00
2023-05-22T06:17:08.396Z,705.00
2023-05-22T06:18:08.460Z,698.00
2023-05-22T06:19:08.479Z,742.00
2023-05-22T06:20:08.478Z,703.00
2023-05-22T06:21:08.490Z,689.00
2023-05-22T06:22:08.546Z,686.00
2023-05-22T06:23:08.568Z,670.00
2023-05-22T06:24:08.528Z,606.00
2023-05-22T06:25:08.518Z,551.00
2023-05-22T06:26:08.559Z,533.00
2023-05-22T06:27:08.571Z,537.00
2023-05-22T06:28:08.570Z,531.00
2023-05-22T06:29:08.577Z,527.00
2023-05-22T06:30:08.611Z,515.00
2023-05-22T06:31:08.684Z,515.00
2023-05-22T06:32:08.658Z,514.00
2023-05-22T06:33:08.658Z,505.00
2023-05-22T06:34:08.805Z,502.00
2023-05-22T06:35:08.657Z,502.00
2023-05-22T06:36:08.701Z,503.00
2023-05-22T06:37:08.724Z,511.00
2023-05-22T06:38:08.750Z,519.00
2023-05-22T06:39:09.636Z,535.00
2023-05-22T06:40:08.855Z,580.00
2023-05-22T06:41:08.880Z,579.00
2023-05-22T06:42:08.988Z,590.00
2023-05-22T06:43:09.098Z,638.00
2023-05-22T06:44:09.070Z,559.00
2023-05-22T06:45:09.047Z,564.00
2023-05-22T06:46:09.432Z,570.00
2023-05-22T06:47:09.139Z,562.00
2023-05-22T06:48:09.663Z,571.00
2023-05-22T06:49:09.161Z,577.00
2023-05-22T06:50:09.221Z,574.00
2023-05-22T06:51:09.208Z,564.00
2023-05-22T06:52:09.219Z,555.00
2023-05-22T06:53:09.254Z,550.00
2023-05-22T06:54:09.361Z,542.00
2023-05-22T06:55:09.295Z,547.00
2023-05-22T06:56:09.377Z,534.00
2023-05-22T06:57:09.402Z,524.00
2023-05-22T06:58:09.397Z,537.00
2023-05-22T06:59:09.416Z,549.00
2023-05-22T07:00:09.604Z,560.00
2023-05-22T07:01:09.658Z,557.00
2023-05-22T07:02:09.529Z,561.00
2023-05-22T07:03:09.668Z,566.00
2023-05-22T07:04:09.579Z,554.00
2023-05-22T07:05:09.638Z,555.00
2023-05-22T07:06:09.715Z,552.00
2023-05-22T07:07:09.686Z,576.00
2023-05-22T07:08:09.721Z,582.00
2023-05-22T07:09:09.767Z,569.00
2023-05-22T07:10:09.780Z,541.00
2023-05-22T07:11:09.860Z,547.00
2023-05-22T07:12:09.857Z,560.00
2023-05-22T07:13:10.180Z,558.00
2023-05-22T07:14:09.876Z,573.00
2023-05-22T07:15:09.898Z,582.00
2023-05-22T07:16:10.030Z,591.00
2023-05-22T07:17:09.976Z,594.00
2023-05-22T07:18:10.024Z,599.00
2023-05-22T07:19:10.026Z,596.00
2023-05-22T07:20:10.643Z,536.00
2023-05-22T07:21:10.120Z,548.00
2023-05-22T07:22:10.157Z,563.00
2023-05-22T07:23:10.153Z,563.00
2023-05-22T07:24:10.197Z,570.00
2023-05-22T07:25:10.211Z,568.00
2023-05-22T07:26:10.232Z,574.00
2023-05-22T07:27:10.243Z,581.00
2023-05-22T07:28:10.275Z,571.00
2023-05-22T07:29:10.346Z,573.00
2023-05-22T07:30:10.402Z,619.00
2023-05-22T07:31:10.391Z,646.00
2023-05-22T07:32:10.458Z,658.00
2023-05-22T07:33:10.722Z,664.00
2023-05-22T07:34:10.465Z,772.00
2023-05-22T07:35:10.503Z,773.00
2023-05-22T07:36:10.489Z,791.00
2023-05-22T07:37:10.536Z,790.00
2023-05-22T07:38:10.722Z,792.00
2023-05-22T07:39:10.544Z,790.00
2023-05-22T07:40:10.582Z,808.00
2023-05-22T07:41:10.594Z,828.00
2023-05-22T07:42:10.720Z,835.00
2023-05-22T07:43:10.680Z,838.00
2023-05-22T07:44:10.648Z,845.00
2023-05-22T07:45:10.635Z,850.00
2023-05-22T07:46:10.695Z,851.00
2023-05-22T07:47:10.658Z,853.00
2023-05-22T07:48:10.795Z,856.00
2023-05-22T07:49:10.691Z,852.00
2023-05-22T07:50:10.704Z,781.00
2023-05-22T07:51:10.717Z,769.00
2023-05-22T07:52:10.735Z,787.00
2023-05-22T07:53:10.777Z,793.00
2023-05-22T07:54:10.788Z,792.00
2023-05-22T07:55:10.852Z,792.00
2023-05-22T07:56:10.806Z,790.00
2023-05-22T07:57:10.820Z,771.00
2023-05-22T07:58:10.865Z,766.00
2023-05-22T07:59:11.660Z,757.00
2023-05-22T08:00:11.148Z,696.00
2023-05-22T08:01:10.894Z,712.00
2023-05-22T08:02:10.963Z,723.00
2023-05-22T08:03:10.993Z,784.00
2023-05-22T08:04:11.169Z,782.00
2023-05-22T08:05:11.036Z,783.00
2023-05-22T08:06:11.003Z,743.00
2023-05-22T08:07:10.990Z,743.00
2023-05-22T08:08:11.011Z,754.00
2023-05-22T08:09:11.011Z,811.00
2023-05-22T08:10:11.659Z,814.00
2023-05-22T08:11:11.238Z,802.00
2023-05-22T08:12:11.068Z,785.00
2023-05-22T08:13:11.079Z,794.00
2023-05-22T08:14:11.139Z,799.00
2023-05-22T08:15:11.157Z,808.00
2023-05-22T08:16:11.142Z,698.00
2023-05-22T08:17:11.177Z,647.00
2023-05-22T08:18:11.199Z,652.00
2023-05-22T08:19:11.298Z,617.00
2023-05-22T08:20:11.299Z,748.00
2023-05-22T08:21:11.205Z,662.00
2023-05-22T08:22:11.274Z,744.00
2023-05-22T08:23:11.262Z,785.00
2023-05-22T08:24:11.261Z,787.00
2023-05-22T08:25:11.297Z,866.00
2023-05-22T08:26:12.151Z,1014.00
2023-05-22T08:27:11.333Z,1041.00
2023-05-22T08:28:11.647Z,1076.00
2023-05-22T08:29:11.660Z,1046.00
2023-05-22T08:30:11.392Z,1018.00
2023-05-22T08:31:11.325Z,963.00
2023-05-22T08:32:11.303Z,943.00
2023-05-22T08:33:11.369Z,932.00
2023-05-22T08:34:11.294Z,927.00
2023-05-22T08:35:11.254Z,922.00
2023-05-22T08:36:11.278Z,912.00
2023-05-22T08:37:11.277Z,879.00
2023-05-22T08:38:11.657Z,850.00
2023-05-22T08:39:12.231Z,834.00
2023-05-22T08:40:11.285Z,826.00
2023-05-22T08:41:11.283Z,821.00
2023-05-22T08:42:11.279Z,928.00
2023-05-22T08:43:11.646Z,905.00
2023-05-22T08:44:11.286Z,951.00
2023-05-22T08:45:11.305Z,1081.00
2023-05-22T08:46:11.295Z,1073.00
2023-05-22T08:47:11.424Z,1081.00
2023-05-22T08:48:11.661Z,1087.00
2023-05-22T08:49:11.666Z,1089.00
2023-05-22T08:50:11.339Z,909.00
2023-05-22T08:51:11.373Z,933.00
2023-05-22T08:52:11.372Z,964.00
2023-05-22T08:53:11.393Z,970.00
2023-05-22T08:54:11.662Z,971.00
2023-05-22T08:55:12.157Z,974.00
2023-05-22T08:56:11.368Z,973.00
2023-05-22T08:57:11.368Z,980.00
2023-05-22T08:58:11.341Z,983.00
2023-05-22T08:59:11.345Z,978.00
2023-05-22T09:00:11.348Z,975.00
2023-05-22T09:01:11.384Z,970.00
2023-05-22T09:02:11.753Z,968.00
2023-05-22T09:03:11.433Z,965.00
2023-05-22T09:04:11.416Z,961.00
2023-05-22T09:05:11.364Z,913.00
2023-05-22T09:06:11.332Z,936.00
2023-05-22T09:07:11.323Z,951.00
2023-05-22T09:08:19.691Z,967.00
2023-05-22T09:09:12.359Z,974.00
2023-05-22T09:10:11.365Z,725.00
2023-05-22T09:11:11.311Z,712.00
2023-05-22T09:12:11.303Z,713.00
2023-05-22T09:13:11.416Z,831.00
2023-05-22T09:14:11.318Z,844.00
2023-05-22T09:15:11.316Z,847.00
2023-05-22T09:16:11.272Z,842.00
2023-05-22T09:17:11.468Z,826.00
2023-05-22T09:18:11.362Z,777.00
2023-05-22T09:19:11.278Z,783.00
2023-05-22T09:20:11.249Z,674.00
2023-05-22T09:21:25.948Z,750.00
2023-05-22T09:22:12.238Z,584.00
2023-05-22T09:23:11.231Z,580.00
2023-05-22T09:24:11.226Z,601.00
2023-05-22T09:25:11.218Z,589.00
2023-05-22T09:26:11.245Z,817.00
2023-05-22T09:27:11.224Z,840.00
2023-05-22T09:28:11.207Z,745.00
2023-05-22T09:29:11.225Z,640.00
2023-05-22T09:30:11.223Z,741.00
2023-05-22T09:31:11.256Z,957.00
2023-05-22T09:32:12.269Z,1055.00
2023-05-22T09:33:11.760Z,1181.00
2023-05-22T09:34:11.202Z,1239.00
2023-05-22T09:35:11.142Z,1295.00
2023-05-22T09:36:11.268Z,1265.00
2023-05-22T09:37:11.169Z,1270.00
2023-05-22T09:38:12.433Z,1209.00
2023-05-22T09:39:11.153Z,1184.00
2023-05-22T09:40:11.147Z,1138.00
2023-05-22T09:41:11.115Z,1137.00
2023-05-22T09:42:11.106Z,1143.00
2023-05-22T09:43:11.192Z,1143.00
2023-05-22T09:44:11.680Z,1136.00
2023-05-22T09:45:11.085Z,1115.00
2023-05-22T09:46:11.179Z,1106.00
2023-05-22T09:47:11.125Z,1098.00
2023-05-22T09:48:11.166Z,1087.00
2023-05-22T09:49:15.089Z,1018.00
2023-05-22T09:50:11.199Z,1038.00
2023-05-22T09:51:11.188Z,1032.00
2023-05-22T09:52:11.185Z,1024.00
2023-05-22T09:53:11.209Z,1013.00
2023-05-22T09:54:11.173Z,1007.00
2023-05-22T09:55:11.243Z,1004.00
2023-05-22T09:56:11.202Z,1005.00
2023-05-22T09:57:11.226Z,1005.00
2023-05-22T09:58:11.272Z,1010.00
2023-05-22T09:59:11.294Z,1019.00
2023-05-22T10:00:11.326Z,1012.00
2023-05-22T10:01:11.359Z,1000.00
2023-05-22T10:02:11.443Z,992.00
2023-05-22T10:03:11.437Z,997.00
2023-05-22T10:04:11.562Z,1044.00
2023-05-22T10:05:11.464Z,1048.00
2023-05-22T10:06:11.521Z,978.00
2023-05-22T10:07:11.584Z,969.00
2023-05-22T10:08:11.567Z,967.00
2023-05-22T10:09:11.701Z,971.00
2023-05-22T10:10:11.632Z,977.00
2023-05-22T10:11:11.679Z,989.00
2023-05-22T10:12:11.672Z,1019.00
2023-05-22T10:13:11.707Z,1026.00
2023-05-22T10:14:11.725Z,1034.00
2023-05-22T10:15:11.788Z,1050.00
2023-05-22T10:16:11.863Z,1107.00
2023-05-22T10:17:11.900Z,1123.00
2023-05-22T10:18:11.941Z,1128.00
2023-05-22T10:19:12.029Z,1240.00
2023-05-22T10:20:12.032Z,1251.00
2023-05-22T10:21:12.056Z,1122.00
2023-05-22T10:22:12.166Z,1095.00
2023-05-22T10:23:12.095Z,1090.00
2023-05-22T10:24:12.266Z,1082.00
2023-05-22T10:25:12.147Z,1079.00
2023-05-22T10:26:12.175Z,1078.00
2023-05-22T10:27:12.215Z,1081.00
2023-05-22T10:28:12.252Z,1139.00
2023-05-22T10:29:13.235Z,1114.00
2023-05-22T10:30:12.362Z,1109.00
2023-05-22T10:31:12.505Z,1100.00
2023-05-22T10:32:12.453Z,1102.00
2023-05-22T10:33:12.589Z,1087.00
2023-05-22T10:34:13.210Z,981.00
2023-05-22T10:35:12.680Z,969.00
2023-05-22T10:36:12.720Z,963.00
2023-05-22T10:37:18.443Z,955.00
2023-05-22T10:38:13.844Z,888.00
2023-05-22T10:39:12.791Z,872.00
2023-05-22T10:40:12.745Z,860.00
2023-05-22T10:41:12.737Z,846.00
2023-05-22T10:42:12.741Z,838.00
2023-05-22T10:43:12.838Z,824.00
2023-05-22T10:44:12.712Z,811.00
2023-05-22T10:45:12.752Z,785.00
2023-05-22T10:46:12.794Z,770.00
2023-05-22T10:47:12.733Z,762.00
2023-05-22T10:48:12.740Z,759.00
2023-05-22T10:49:12.706Z,752.00
2023-05-22T10:50:12.764Z,744.00
2023-05-22T10:51:12.762Z,737.00
2023-05-22T10:52:12.771Z,851.00
2023-05-22T10:53:12.809Z,933.00
2023-05-22T10:54:12.988Z,906.00
2023-05-22T10:55:13.007Z,737.00
2023-05-22T10:56:12.935Z,704.00
2023-05-22T10:57:12.954Z,695.00
2023-05-22T10:58:13.227Z,689.00
2023-05-22T10:59:13.015Z,683.00
2023-05-22T11:00:13.048Z,679.00
2023-05-22T11:01:13.087Z,1056.00
2023-05-22T11:02:13.142Z,1209.00
2023-05-22T11:03:17.842Z,1225.00
2023-05-22T11:04:14.160Z,1286.00
2023-05-22T11:05:13.213Z,1288.00
2023-05-22T11:06:13.092Z,1255.00
2023-05-22T11:07:13.131Z,1187.00
2023-05-22T11:08:13.106Z,1154.00
2023-05-22T11:09:13.098Z,1140.00
2023-05-22T11:10:13.167Z,1101.00
2023-05-22T11:11:13.069Z,1090.00
2023-05-22T11:12:13.110Z,1080.00
2023-05-22T11:13:13.173Z,1064.00
2023-05-22T11:14:13.209Z,1067.00
2023-05-22T11:15:13.276Z,1066.00
2023-05-22T11:16:13.345Z,1066.00
2023-05-22T11:17:13.512Z,1071.00
2023-05-22T11:18:13.485Z,1071.00
2023-05-22T11:19:23.403Z,1048.00
2023-05-22T11:20:14.517Z,954.00
2023-05-22T11:21:13.728Z,983.00
2023-05-22T11:22:13.458Z,1116.00
2023-05-22T11:23:13.748Z,1171.00
2023-05-22T11:24:13.447Z,1100.00
2023-05-22T11:25:13.438Z,1185.00
2023-05-22T11:26:13.523Z,1225.00
2023-05-22T11:27:13.439Z,1238.00
2023-05-22T11:28:13.428Z,1100.00
2023-05-22T11:29:13.453Z,1075.00
2023-05-22T11:30:13.478Z,1135.00
2023-05-22T11:31:13.592Z,982.00
2023-05-22T11:32:13.559Z,1071.00
2023-05-22T11:33:13.641Z,1157.00
2023-05-22T11:34:13.669Z,1007.00
2023-05-22T11:35:13.737Z,1023.00
2023-05-22T11:36:13.804Z,1216.00
2023-05-22T11:37:13.862Z,1314.00
2023-05-22T11:38:13.964Z,1561.00
2023-05-22T11:39:13.994Z,1390.00
2023-05-22T11:40:14.055Z,1407.00
2023-05-22T11:41:14.093Z,1336.00
2023-05-22T11:42:14.253Z,1321.00
2023-05-22T11:43:14.313Z,1303.00
2023-05-22T11:44:14.289Z,1209.00
2023-05-22T11:45:14.315Z,1146.00
2023-05-22T11:46:14.415Z,1095.00
2023-05-22T11:47:14.409Z,918.00
2023-05-22T11:48:15.611Z,839.00
2023-05-22T11:49:14.523Z,750.00
2023-05-22T11:50:16.393Z,720.00
2023-05-22T11:51:15.596Z,704.00
2023-05-22T11:52:14.553Z,701.00
2023-05-22T11:53:14.562Z,700.00
2023-05-22T11:54:14.539Z,704.00
2023-05-22T11:55:14.601Z,709.00
2023-05-22T11:56:14.526Z,713.00
2023-05-22T11:57:14.518Z,759.00
2023-05-22T11:58:14.617Z,750.00
2023-05-22T11:59:14.501Z,745.00
2023-05-22T12:00:14.687Z,906.00
2023-05-22T12:01:14.583Z,1037.00
2023-05-22T12:02:14.684Z,1059.00
2023-05-22T12:03:14.799Z,1065.00
2023-05-22T12:04:14.844Z,1066.00
2023-05-22T12:05:14.833Z,1063.00
2023-05-22T12:06:17.131Z,902.00
2023-05-22T12:07:15.058Z,857.00
2023-05-22T12:08:15.123Z,780.00
2023-05-22T12:09:15.156Z,751.00
2023-05-22T12:10:15.258Z,734.00
2023-05-22T12:11:15.273Z,729.00
2023-05-22T12:12:15.350Z,719.00
2023-05-22T12:13:15.395Z,714.00
2023-05-22T12:14:15.558Z,711.00
2023-05-22T12:15:15.510Z,705.00
2023-05-22T12:16:15.593Z,667.00
2023-05-22T12:17:15.585Z,670.00
2023-05-22T12:18:15.625Z,677.00
2023-05-22T12:19:15.796Z,684.00
2023-05-22T12:20:15.810Z,698.00
2023-05-22T12:21:15.787Z,708.00
2023-05-22T12:22:15.879Z,703.00
2023-05-22T12:23:15.875Z,698.00
2023-05-22T12:24:15.933Z,704.00
2023-05-22T12:25:16.026Z,985.00